Time;durP1;ratioP1;P1;durP2;ratioP2;P2;SDS_P1;SDS_P2;PMS_P1;PMS_P2;Temp;Humidity;BMP_temperature;BMP_pressure;BME280_temperature;BME280_humidity;BME280_pressure;Samples;Min_cycle;Max_cycle;Signal;HPM_P1;HPM_P2
2021/12/04 00:01:52;;;;;;;3.80;2.80;;;5.20;99.90;;;;;;5044794;28;20412;-68
2021/12/04 00:04:23;;;;;;;2.70;2.50;;;5.10;99.90;;;;;;5050401;28;20440;-69
2021/12/04 00:06:49;;;;;;;4.60;2.63;;;5.20;99.90;;;;;;5048406;28;20511;-69
2021/12/04 00:09:17;;;;;;;3.50;2.57;;;5.10;99.90;;;;;;5047986;28;20514;-69
2021/12/04 00:11:52;;;;;;;5.47;2.40;;;5.10;99.90;;;;;;5050335;28;20806;-71
2021/12/04 00:14:19;;;;;;;3.60;2.93;;;5.10;99.90;;;;;;5050193;28;20423;-69
2021/12/04 00:16:45;;;;;;;3.23;2.80;;;5.20;99.90;;;;;;5050054;28;20495;-68
2021/12/04 00:19:10;;;;;;;3.90;3.00;;;5.20;99.90;;;;;;5041844;28;20585;-68
2021/12/04 00:21:36;;;;;;;5.43;3.60;;;5.10;99.90;;;;;;5029797;28;20532;-69
2021/12/04 00:24:01;;;;;;;7.93;2.60;;;5.20;99.90;;;;;;5038569;28;20273;-68
2021/12/04 00:26:27;;;;;;;4.00;2.80;;;5.30;99.90;;;;;;5047340;28;20680;-68
2021/12/04 00:28:52;;;;;;;4.20;2.50;;;5.20;99.90;;;;;;5043850;28;20180;-68
2021/12/04 00:31:18;;;;;;;4.40;2.50;;;5.50;99.90;;;;;;5053776;28;20361;-68
2021/12/04 00:33:45;;;;;;;3.90;2.50;;;5.20;99.90;;;;;;5047674;28;20201;-69
2021/12/04 00:36:25;;;;;;;4.50;2.60;;;5.40;99.90;;;;;;5032368;28;20170;-69
2021/12/04 00:49:47;;;;;;;3.60;3.30;;;5.10;99.90;;;;;;5029245;28;20992;-69
2021/12/04 00:52:13;;;;;;;3.57;3.00;;;5.10;99.90;;;;;;5029026;28;20452;-68
2021/12/04 00:54:39;;;;;;;3.07;2.50;;;5.00;99.90;;;;;;5029378;28;20240;-68
2021/12/04 00:57:04;;;;;;;6.03;3.73;;;5.40;99.90;;;;;;5029112;28;20253;-68
2021/12/04 00:59:30;;;;;;;4.70;3.80;;;5.00;99.90;;;;;;5056710;28;20256;-69
2021/12/04 01:01:56;;;;;;;4.40;2.97;;;5.00;99.90;;;;;;5028897;28;20664;-68
2021/12/04 01:04:23;;;;;;;4.47;4.07;;;5.00;99.90;;;;;;5029006;28;20194;-68
2021/12/04 01:06:49;;;;;;;3.67;3.37;;;5.00;99.90;;;;;;5028826;28;20170;-68
2021/12/04 01:09:17;;;;;;;6.50;3.73;;;5.30;99.90;;;;;;5046373;28;20446;-69
2021/12/04 01:11:44;;;;;;;6.93;4.37;;;5.00;99.90;;;;;;5042677;28;20631;-68
2021/12/04 01:14:13;;;;;;;3.47;3.17;;;5.00;99.90;;;;;;5048773;28;20458;-68
2021/12/04 01:16:39;;;;;;;4.80;3.97;;;5.50;99.90;;;;;;5048465;28;20396;-71
2021/12/04 01:19:05;;;;;;;3.83;3.17;;;5.00;99.90;;;;;;5047794;28;20420;-68
2021/12/04 01:21:31;;;;;;;6.17;3.10;;;5.30;99.90;;;;;;5048596;28;20414;-71
2021/12/04 01:23:57;;;;;;;4.50;3.57;;;5.10;99.90;;;;;;5027088;28;20205;-69
2021/12/04 01:26:23;;;;;;;5.23;3.47;;;5.30;99.90;;;;;;5043172;28;20423;-69
2021/12/04 01:28:49;;;;;;;3.43;2.70;;;5.10;99.90;;;;;;5042207;28;20181;-69
2021/12/04 01:31:15;;;;;;;4.63;2.80;;;5.20;99.90;;;;;;5054006;28;20490;-69
2021/12/04 01:33:41;;;;;;;4.83;2.60;;;5.20;99.90;;;;;;5048919;28;20497;-69
2021/12/04 01:36:06;;;;;;;3.30;3.00;;;5.20;99.90;;;;;;5047485;28;20173;-69
2021/12/04 01:38:32;;;;;;;3.63;2.57;;;5.30;99.90;;;;;;5046333;28;20310;-69
2021/12/04 01:40:58;;;;;;;2.83;2.20;;;5.30;99.90;;;;;;5047202;28;20169;-68
2021/12/04 01:43:24;;;;;;;2.83;2.17;;;;;;;;;;5047676;28;20173;-68
2021/12/04 01:45:54;;;;;;;2.73;2.20;;;5.30;99.90;;;;;;5048453;28;20169;-68
2021/12/04 01:48:20;;;;;;;2.60;2.13;;;5.30;99.90;;;;;;5042614;28;20420;-69
2021/12/04 01:50:46;;;;;;;4.03;2.63;;;5.20;99.90;;;;;;5028610;28;20417;-68
2021/12/04 01:53:11;;;;;;;5.47;2.60;;;5.20;99.90;;;;;;5029414;28;20694;-69
2021/12/04 01:55:37;;;;;;;4.20;2.40;;;5.10;99.90;;;;;;5032618;28;20188;-70
2021/12/04 01:58:04;;;;;;;13.53;5.73;;;5.00;99.90;;;;;;5033615;28;20177;-68
2021/12/04 02:00:37;;;;;;;6.80;4.20;;;5.00;99.90;;;;;;5044020;28;20205;-69
2021/12/04 02:03:04;;;;;;;3.40;2.53;;;4.90;99.90;;;;;;5045345;28;20526;-70
2021/12/04 02:05:31;;;;;;;7.20;3.13;;;4.70;99.90;;;;;;5052905;28;20427;-69
2021/12/04 02:07:56;;;;;;;4.60;2.90;;;4.90;99.90;;;;;;5051775;28;20845;-69
2021/12/04 02:10:22;;;;;;;2.90;2.57;;;4.50;99.90;;;;;;5052472;28;20431;-69
2021/12/04 02:12:49;;;;;;;3.90;2.73;;;4.60;99.90;;;;;;5050969;28;20201;-70
2021/12/04 02:15:16;;;;;;;3.10;2.60;;;4.30;99.90;;;;;;5052804;28;20629;-70
2021/12/04 02:17:45;;;;;;;3.27;2.77;;;4.30;99.90;;;;;;5051558;28;20408;-69
2021/12/04 02:20:19;;;;;;;5.33;2.83;;;4.80;99.90;;;;;;5032235;28;20412;-68
2021/12/04 02:22:45;;;;;;;4.03;2.70;;;4.20;99.90;;;;;;5030745;28;20814;-69
2021/12/04 02:25:10;;;;;;;2.80;2.60;;;4.20;99.90;;;;;;5032105;28;20525;-69
2021/12/04 02:27:37;;;;;;;4.70;2.57;;;4.50;99.90;;;;;;5037212;28;20419;-70
2021/12/04 02:30:07;;;;;;;4.70;3.20;;;4.10;99.90;;;;;;5052047;28;20174;-68
2021/12/04 02:32:33;;;;;;;4.07;2.70;;;4.00;99.90;;;;;;5049746;28;20458;-70
2021/12/04 02:34:59;;;;;;;3.20;2.33;;;3.80;99.90;;;;;;5047680;28;20537;-69
2021/12/04 02:37:25;;;;;;;3.90;2.67;;;3.80;99.90;;;;;;5049357;28;20180;-69
2021/12/04 02:39:58;;;;;;;9.50;3.20;;;3.90;99.90;;;;;;5044956;28;20228;-69
2021/12/04 02:42:25;;;;;;;3.27;2.67;;;3.70;99.90;;;;;;5060136;28;20181;-69
2021/12/04 02:44:51;;;;;;;4.93;3.10;;;3.60;99.90;;;;;;5071720;28;20459;-69
2021/12/04 02:47:17;;;;;;;2.93;2.60;;;3.50;99.90;;;;;;5071176;28;20408;-70
2021/12/04 02:49:43;;;;;;;6.43;2.77;;;3.80;99.90;;;;;;5055092;28;20874;-70
2021/12/04 02:52:10;;;;;;;4.00;2.70;;;3.30;99.90;;;;;;5051190;28;20562;-71
2021/12/04 02:54:36;;;;;;;3.20;2.80;;;3.20;99.90;;;;;;5043534;28;20436;-68
2021/12/04 02:57:04;;;;;;;4.43;2.57;;;3.20;99.90;;;;;;5048964;28;20794;-69
2021/12/04 02:59:32;;;;;;;5.13;3.80;;;3.10;99.90;;;;;;5051868;28;20529;-69
2021/12/04 03:01:58;;;;;;;4.40;3.43;;;3.10;99.90;;;;;;5050906;28;20416;-68
2021/12/04 03:04:24;;;;;;;4.50;3.50;;;3.10;99.90;;;;;;5049785;28;20826;-69
2021/12/04 03:06:51;;;;;;;6.07;3.80;;;3.10;99.90;;;;;;5041764;28;20182;-70
2021/12/04 03:09:17;;;;;;;4.63;3.63;;;3.20;99.90;;;;;;5033232;28;20448;-69
2021/12/04 03:11:43;;;;;;;4.27;3.77;;;3.40;99.90;;;;;;5046489;28;21048;-69
2021/12/04 03:14:08;;;;;;;6.70;4.37;;;3.00;99.90;;;;;;5050392;28;20439;-70
2021/12/04 03:16:36;;;;;;;7.47;4.00;;;3.00;99.90;;;;;;5047834;28;20181;-69
2021/12/04 03:19:02;;;;;;;5.67;3.77;;;3.40;99.90;;;;;;5047439;28;20303;-71
2021/12/04 03:21:28;;;;;;;4.27;3.47;;;3.10;99.90;;;;;;5049698;28;20799;-69
2021/12/04 03:24:03;;;;;;;4.67;3.37;;;3.10;99.90;;;;;;5033710;28;20440;-70
2021/12/04 03:26:29;;;;;;;5.73;4.33;;;3.60;99.90;;;;;;5037906;28;20165;-69
2021/12/04 03:28:57;;;;;;;4.03;3.40;;;3.10;99.90;;;;;;5049428;28;20429;-68
2021/12/04 03:31:44;;;;;;;4.57;3.90;;;3.10;99.90;;;;;;5046051;28;20562;-70
2021/12/04 03:42:23;;;;;;;5.37;4.23;;;3.40;99.90;;;;;;5033538;28;20505;-72
2021/12/04 03:44:49;;;;;;;6.03;4.37;;;3.30;99.90;;;;;;5031978;28;20738;-70
2021/12/04 03:47:15;;;;;;;4.67;3.90;;;3.30;99.90;;;;;;5032479;28;20208;-70
2021/12/04 03:49:41;;;;;;;4.93;4.23;;;3.60;99.90;;;;;;5040623;28;20523;-70
2021/12/04 03:52:08;;;;;;;4.20;3.20;;;3.30;99.90;;;;;;5037797;28;20654;-70
2021/12/04 03:54:34;;;;;;;4.60;3.70;;;3.60;99.90;;;;;;5050033;28;20258;-70
2021/12/04 03:57:03;;;;;;;4.90;3.37;;;3.50;99.90;;;;;;5044752;28;20452;-69
2021/12/04 03:59:30;;;;;;;4.53;3.50;;;3.40;99.90;;;;;;5050642;28;20420;-69
2021/12/04 04:01:56;;;;;;;6.37;3.73;;;4.30;99.90;;;;;;5043878;28;20507;-69
2021/12/04 04:04:21;;;;;;;4.90;3.60;;;3.40;99.90;;;;;;5049195;28;20518;-69
2021/12/04 04:06:47;;;;;;;4.20;3.13;;;3.40;99.90;;;;;;5036522;28;20192;-69
2021/12/04 04:09:12;;;;;;;3.33;3.03;;;3.50;99.90;;;;;;5030332;28;20185;-69
2021/12/04 04:11:38;;;;;;;5.30;3.10;;;3.90;99.90;;;;;;5034513;28;20236;-69
2021/12/04 04:14:05;;;;;;;3.10;2.70;;;3.60;99.90;;;;;;5046685;28;20255;-69
2021/12/04 04:16:31;;;;;;;4.33;3.20;;;3.60;99.90;;;;;;5046392;28;20173;-72
2021/12/04 04:18:56;;;;;;;4.80;3.33;;;3.60;99.90;;;;;;5049274;28;20415;-69
2021/12/04 04:21:22;;;;;;;3.30;2.80;;;3.60;99.90;;;;;;5039579;28;20784;-73
2021/12/04 04:23:48;;;;;;;3.40;3.10;;;3.60;99.90;;;;;;5030011;28;20209;-70
2021/12/04 04:26:13;;;;;;;3.97;2.97;;;3.60;99.90;;;;;;5041653;28;20548;-69
2021/12/04 04:28:39;;;;;;;4.13;2.97;;;3.60;99.90;;;;;;5032653;28;20185;-69
2021/12/04 04:31:05;;;;;;;3.30;3.00;;;3.60;99.90;;;;;;5036382;28;20540;-69
2021/12/04 04:33:36;;;;;;;9.20;3.27;;;3.70;99.90;;;;;;5047677;28;20212;-69
2021/12/04 04:36:19;;;;;;;3.10;2.80;;;3.70;99.90;;;;;;5046037;28;20411;-69
2021/12/04 04:39:06;;;;;;;3.80;2.90;;;3.70;99.90;;;;;;5030592;28;20492;-70
2021/12/04 04:58:16;;;;;;;9.23;4.70;;;3.80;99.90;;;;;;5037342;28;20428;-69
2021/12/04 05:11:56;;;;;;;8.77;4.70;;;3.90;99.90;;;;;;5030913;28;20462;-71
2021/12/04 05:14:22;;;;;;;11.60;6.10;;;3.90;99.90;;;;;;5045239;28;20527;-70
2021/12/04 05:16:58;;;;;;;13.37;6.10;;;3.90;99.90;;;;;;5038180;28;20849;-69
2021/12/04 05:19:27;;;;;;;10.00;5.33;;;4.00;99.90;;;;;;5035293;28;20800;-70
2021/12/04 05:21:53;;;;;;;11.90;5.63;;;4.00;99.90;;;;;;5034189;28;20948;-69
2021/12/04 05:24:20;;;;;;;7.43;4.53;;;4.00;99.90;;;;;;5038845;28;20502;-69
2021/12/04 05:26:45;;;;;;;8.47;5.30;;;4.10;99.90;;;;;;5037876;28;20428;-71
2021/12/04 05:29:11;;;;;;;8.67;5.00;;;4.10;99.90;;;;;;5029401;28;20435;-71
2021/12/04 05:31:36;;;;;;;10.90;5.67;;;4.20;99.90;;;;;;5035347;28;20211;-69
2021/12/04 05:34:02;;;;;;;11.23;5.23;;;4.20;99.90;;;;;;5048913;28;20189;-70
2021/12/04 05:36:28;;;;;;;6.87;4.70;;;4.10;99.90;;;;;;5041395;28;20569;-71
2021/12/04 05:38:53;;;;;;;7.67;4.73;;;4.10;99.90;;;;;;5034031;28;20166;-73
2021/12/04 05:41:19;;;;;;;8.13;5.20;;;4.10;99.90;;;;;;5032442;28;20192;-70
2021/12/04 05:43:44;;;;;;;10.80;5.37;;;4.10;99.90;;;;;;5056035;28;20189;-70
2021/12/04 05:46:19;;;;;;;7.50;5.03;;;4.10;99.90;;;;;;5058832;28;20166;-69
2021/12/04 05:56:17;;;;;;;10.03;6.13;;;4.10;99.90;;;;;;5034798;28;20440;-69
2021/12/04 05:58:42;;;;;;;10.30;5.90;;;4.10;99.90;;;;;;5031440;28;20441;-69
2021/12/04 06:01:09;;;;;;;9.03;6.10;;;4.30;99.90;;;;;;5041103;28;20431;-69
2021/12/04 06:03:35;;;;;;;10.30;5.57;;;4.10;99.90;;;;;;5034596;28;20177;-69
2021/12/04 06:06:02;;;;;;;8.80;6.03;;;4.10;99.90;;;;;;5037836;28;20519;-69
2021/12/04 06:08:27;;;;;;;9.33;6.30;;;4.10;99.90;;;;;;5054125;28;20977;-69
2021/12/04 06:10:53;;;;;;;8.93;6.30;;;4.10;99.90;;;;;;5047716;28;20490;-69
2021/12/04 06:13:19;;;;;;;9.30;6.17;;;4.10;99.90;;;;;;5052734;28;20325;-69
2021/12/04 06:15:45;;;;;;;8.80;6.23;;;4.10;99.90;;;;;;5046098;28;20455;-68
2021/12/04 06:18:13;;;;;;;11.50;6.30;;;4.00;99.90;;;;;;5038063;28;20436;-70
2021/12/04 06:23:24;;;;;;;9.47;6.23;;;4.00;99.90;;;;;;5038168;28;20439;-70
2021/12/04 06:25:49;;;;;;;8.80;5.90;;;3.90;99.90;;;;;;5040602;28;20612;-69
2021/12/04 06:28:16;;;;;;;8.87;5.90;;;4.00;99.90;;;;;;5056329;28;20427;-70
2021/12/04 06:30:42;;;;;;;10.30;7.10;;;4.00;99.90;;;;;;5034746;28;20189;-70
2021/12/04 06:33:11;;;;;;;10.50;6.87;;;4.00;99.90;;;;;;5035537;28;20638;-69
2021/12/04 06:35:40;;;;;;;11.97;7.40;;;4.10;99.90;;;;;;5047519;28;20442;-69
2021/12/04 06:38:10;;;;;;;8.87;6.20;;;4.10;99.90;;;;;;5035853;28;20451;-69
2021/12/04 06:40:38;;;;;;;11.43;6.73;;;4.10;99.90;;;;;;5042384;28;20422;-69
2021/12/04 06:43:05;;;;;;;11.20;6.77;;;4.10;99.90;;;;;;5054038;28;20424;-69
2021/12/04 06:45:33;;;;;;;16.83;6.97;;;4.20;99.90;;;;;;5064448;28;20442;-69
2021/12/04 06:48:03;;;;;;;12.43;7.00;;;4.40;99.90;;;;;;5035944;28;20523;-70
2021/12/04 06:53:28;;;;;;;13.00;7.33;;;4.20;99.90;;;;;;5031613;28;20551;-69
2021/12/04 06:55:56;;;;;;;14.30;7.67;;;4.30;99.90;;;;;;5031884;28;20486;-69
2021/12/04 06:58:24;;;;;;;12.43;8.10;;;4.30;99.90;;;;;;5033108;28;22132;-69
2021/12/04 07:00:50;;;;;;;8.17;5.70;;;4.30;99.90;;;;;;5048182;28;20419;-69
2021/12/04 07:03:16;;;;;;;8.23;5.97;;;4.30;99.90;;;;;;5049489;28;20462;-70
2021/12/04 07:05:42;;;;;;;11.40;6.10;;;4.40;99.90;;;;;;5051281;28;20446;-69
2021/12/04 07:08:07;;;;;;;13.50;7.23;;;4.40;99.90;;;;;;5031718;28;20888;-70
2021/12/04 07:10:33;;;;;;;15.80;7.90;;;4.40;99.90;;;;;;5040585;28;20189;-69
2021/12/04 07:13:00;;;;;;;14.23;7.40;;;4.40;99.90;;;;;;5040079;28;20217;-69
2021/12/04 07:15:28;;;;;;;8.40;6.10;;;4.40;99.90;;;;;;5048738;28;20276;-71
2021/12/04 07:17:53;;;;;;;14.97;6.73;;;4.40;99.90;;;;;;5047003;28;20722;-69
2021/12/04 07:20:19;;;;;;;11.43;7.23;;;4.50;99.90;;;;;;5046317;28;20500;-69
2021/12/04 07:22:44;;;;;;;12.70;6.97;;;4.50;99.90;;;;;;5043801;28;20178;-69
2021/12/04 07:25:10;;;;;;;7.27;5.47;;;4.50;99.90;;;;;;5031729;28;20281;-70
2021/12/04 07:27:35;;;;;;;6.83;5.30;;;4.50;99.90;;;;;;5038694;28;20181;-69
2021/12/04 07:30:03;;;;;;;8.87;5.83;;;4.50;99.90;;;;;;5049581;28;20173;-69
2021/12/04 07:32:29;;;;;;;12.10;6.67;;;4.50;99.90;;;;;;5041782;28;20642;-69
2021/12/04 07:34:55;;;;;;;12.17;7.73;;;4.50;99.90;;;;;;5037715;28;20440;-70
2021/12/04 07:37:21;;;;;;;10.83;7.27;;;4.50;99.90;;;;;;5045333;28;20421;-70
2021/12/04 07:39:47;;;;;;;13.90;7.37;;;4.50;99.90;;;;;;5042255;28;20261;-70
2021/12/04 07:42:12;;;;;;;14.53;7.60;;;4.50;99.90;;;;;;5047930;28;20519;-71
2021/12/04 15:10:19;;;;;;;6.93;5.50;;;6.60;99.90;;;;;;5051731;28;20611;-68
2021/12/04 15:12:44;;;;;;;9.80;6.20;;;6.70;99.90;;;;;;5045942;28;20420;-69
2021/12/04 15:15:11;;;;;;;8.90;7.00;;;6.90;99.90;;;;;;5059935;28;20442;-69
2021/12/04 15:17:41;;;;;;;7.90;6.23;;;7.10;99.90;;;;;;5049256;28;20508;-69
2021/12/04 15:20:11;;;;;;;8.90;6.50;;;7.20;99.90;;;;;;5045410;28;20562;-70
2021/12/04 15:22:44;;;;;;;9.33;6.77;;;7.30;99.90;;;;;;5043299;28;20791;-71
2021/12/04 15:25:14;;;;;;;10.60;7.73;;;7.40;99.90;;;;;;5045185;28;20486;-69
2021/12/04 15:27:40;;;;;;;11.57;7.80;;;7.50;99.90;;;;;;5055751;28;20723;-69
2021/12/04 15:30:10;;;;;;;10.07;7.53;;;7.50;99.90;;;;;;5040615;28;20950;-69
2021/12/04 15:41:24;;;;;;;15.70;9.70;;;8.20;99.90;;;;;;4991856;28;21032;-68
2021/12/04 15:47:06;;;;;;;12.40;8.20;;;7.80;99.90;;;;;;4985650;28;20473;-69
2021/12/04 15:52:48;;;;;;;13.00;8.70;;;7.80;99.90;;;;;;4985492;28;20821;-69
2021/12/04 15:55:02;;;;;;;11.50;8.93;;;7.80;99.90;;;;;;4983822;28;20267;-68
2021/12/04 15:57:29;;;;;;;11.47;8.43;;;7.80;99.90;;;;;;4981020;28;20447;-69
2021/12/04 15:59:57;;;;;;;14.50;9.40;;;7.80;99.90;;;;;;4985878;28;20945;-69
2021/12/04 16:02:32;;;;;;;13.13;9.82;;;7.80;99.90;;;;;;5003560;28;20789;-70
2021/12/04 16:05:18;;;;;;;11.70;8.60;;;7.80;99.90;;;;;;4990320;28;20668;-69
2021/12/04 16:07:44;;;;;;;15.97;10.97;;;7.80;99.90;;;;;;4984100;28;20629;-70
2021/12/04 16:10:17;;;;;;;13.00;9.70;;;7.90;99.90;;;;;;4982112;28;20458;-70
2021/12/04 16:12:44;;;;;;;11.33;8.23;;;8.00;99.90;;;;;;4995525;28;20830;-72
2021/12/04 16:15:14;;;;;;;10.60;7.23;;;8.00;99.90;;;;;;5004545;28;20441;-70
2021/12/04 16:17:40;;;;;;;9.20;6.63;;;8.10;99.90;;;;;;5001120;28;20870;-70
2021/12/04 16:20:11;;;;;;;10.03;5.87;;;8.20;99.90;;;;;;4958848;28;20503;-71
2021/12/04 16:22:39;;;;;;;6.63;5.20;;;8.20;99.90;;;;;;4950755;28;20642;-70
2021/12/04 16:25:12;;;;;;;7.30;5.20;;;8.30;99.90;;;;;;4957743;28;20518;-70
2021/12/04 16:33:11;;;;;;;4.30;3.53;;;8.60;99.90;;;;;;4973860;28;20444;-74
2021/12/04 16:38:09;;;;;;;4.57;3.43;;;8.80;99.90;;;;;;4983720;28;20461;-71
2021/12/04 16:40:38;;;;;;;4.40;3.27;;;8.90;99.90;;;;;;4978529;28;20203;-71
2021/12/04 16:43:11;;;;;;;6.40;4.10;;;8.90;99.90;;;;;;4976408;28;20447;-71
2021/12/04 16:45:40;;;;;;;10.90;7.10;;;8.90;99.90;;;;;;4968501;28;20494;-72
2021/12/04 16:48:08;;;;;;;8.43;5.10;;;9.00;99.90;;;;;;4967194;28;20833;-71
2021/12/04 16:59:13;;;;;;;7.40;4.70;;;9.10;99.90;;;;;;4965742;28;20549;-71
2021/12/04 17:01:40;;;;;;;5.40;3.80;;;9.10;99.90;;;;;;4969852;28;20762;-70
2021/12/04 17:04:07;;;;;;;6.07;3.70;;;9.10;99.90;;;;;;4983552;28;20941;-71
2021/12/04 17:06:34;;;;;;;6.07;3.40;;;9.10;99.90;;;;;;4962529;28;20428;-71
2021/12/04 17:09:00;;;;;;;4.13;2.53;;;9.00;99.90;;;;;;4950537;28;20570;-72
2021/12/04 17:11:26;;;;;;;8.27;4.10;;;9.00;99.90;;;;;;4971640;28;20513;-70
2021/12/04 17:13:51;;;;;;;3.13;2.73;;;9.00;99.90;;;;;;4997912;28;20171;-69
2021/12/04 17:16:24;;;;;;;2.80;2.60;;;9.00;99.90;;;;;;4990059;28;20218;-70
2021/12/04 17:18:51;;;;;;;4.10;3.30;;;9.10;99.90;;;;;;4970899;28;20665;-75
2021/12/04 17:21:19;;;;;;;3.93;3.50;;;9.00;99.90;;;;;;4976408;28;20438;-73
2021/12/04 17:23:45;;;;;;;2.87;2.53;;;8.90;99.90;;;;;;4980487;28;20878;-72
2021/12/04 17:26:10;;;;;;;3.40;2.80;;;8.90;99.90;;;;;;4978099;28;20446;-70
2021/12/04 17:28:42;;;;;;;3.00;2.70;;;9.00;99.90;;;;;;4978861;28;20203;-71
2021/12/04 17:31:08;;;;;;;3.17;2.60;;;8.90;99.90;;;;;;4970271;28;20522;-71
2021/12/04 17:33:34;;;;;;;2.73;1.90;;;8.90;99.90;;;;;;4969718;28;20523;-70
2021/12/04 17:35:59;;;;;;;4.30;1.50;;;8.90;99.90;;;;;;4969537;28;20320;-74
2021/12/04 17:38:25;;;;;;;3.40;2.03;;;8.90;99.90;;;;;;4969664;28;20202;-71
2021/12/04 17:40:50;;;;;;;2.13;1.57;;;8.80;99.90;;;;;;4966864;28;20526;-70
2021/12/04 17:43:17;;;;;;;2.53;1.90;;;8.60;99.90;;;;;;4979958;28;20180;-73
2021/12/04 17:45:43;;;;;;;2.37;1.83;;;8.50;99.90;;;;;;4989724;28;20180;-70
2021/12/04 17:48:10;;;;;;;2.40;1.40;;;8.40;99.90;;;;;;4988923;28;20476;-70
2021/12/04 17:50:42;;;;;;;1.60;1.30;;;8.20;99.90;;;;;;4972568;28;20180;-69
2021/12/04 17:53:07;;;;;;;1.47;1.33;;;8.10;99.90;;;;;;4974263;28;20509;-70
2021/12/04 17:55:33;;;;;;;2.03;1.47;;;8.00;99.90;;;;;;4973587;28;20518;-70
2021/12/04 17:57:59;;;;;;;2.40;1.80;;;7.90;99.90;;;;;;4952814;28;20999;-72
2021/12/04 18:00:37;;;;;;;1.20;1.10;;;7.80;99.90;;;;;;4974806;28;20078;-70
2021/12/04 18:03:04;;;;;;;1.60;1.50;;;7.80;99.90;;;;;;4982984;28;20423;-72
2021/12/04 18:05:30;;;;;;;2.27;1.70;;;7.70;99.90;;;;;;4982019;28;20435;-71
2021/12/04 18:07:58;;;;;;;1.77;1.67;;;8.10;99.90;;;;;;4970783;28;20587;-69
2021/12/04 18:10:25;;;;;;;1.80;1.50;;;7.60;99.90;;;;;;4968533;28;20845;-74
2021/12/04 18:12:54;;;;;;;4.23;1.43;;;7.60;99.90;;;;;;4969542;28;20502;-70
2021/12/04 18:15:23;;;;;;;2.43;2.00;;;7.70;99.90;;;;;;4961336;28;20623;-72
2021/12/04 18:17:48;;;;;;;1.93;1.60;;;7.60;99.90;;;;;;4963810;28;20479;-71
2021/12/04 18:20:15;;;;;;;2.60;1.93;;;7.60;99.90;;;;;;4963921;28;20811;-71
2021/12/04 18:22:40;;;;;;;2.33;1.80;;;7.70;99.90;;;;;;4948405;28;20235;-72
2021/12/04 18:25:07;;;;;;;2.23;2.03;;;7.60;99.90;;;;;;4964189;28;20419;-72
2021/12/04 18:27:35;;;;;;;3.50;1.63;;;7.50;99.90;;;;;;4974929;28;20278;-71
2021/12/04 18:30:06;;;;;;;2.30;1.50;;;7.50;99.90;;;;;;4950077;28;20814;-78
2021/12/04 18:32:32;;;;;;;1.30;1.20;;;7.50;99.90;;;;;;4950178;28;20578;-70
2021/12/04 18:34:59;;;;;;;1.43;1.33;;;7.50;99.90;;;;;;4950196;28;20439;-70
2021/12/04 18:37:25;;;;;;;1.90;1.70;;;7.50;99.90;;;;;;4949009;28;20271;-71
2021/12/04 18:39:50;;;;;;;1.87;1.60;;;7.50;99.90;;;;;;4949385;28;20443;-74
2021/12/04 18:42:16;;;;;;;1.77;1.60;;;7.50;99.90;;;;;;4973906;28;20436;-69
2021/12/04 18:44:42;;;;;;;1.67;1.57;;;7.50;99.90;;;;;;4986158;28;20321;-73
2021/12/04 18:47:07;;;;;;;3.10;1.60;;;7.60;99.90;;;;;;4969478;28;20250;-70
2021/12/04 18:49:33;;;;;;;2.07;1.87;;;7.60;99.90;;;;;;4966899;28;20295;-73
2021/12/04 18:51:59;;;;;;;1.63;1.53;;;7.60;99.90;;;;;;4950201;28;20449;-70
2021/12/04 18:54:26;;;;;;;1.70;1.20;;;7.60;99.90;;;;;;4948178;28;20188;-72
2021/12/04 18:56:52;;;;;;;1.17;1.07;;;7.60;99.90;;;;;;4957762;28;20222;-74
2021/12/04 18:59:18;;;;;;;1.70;1.13;;;7.70;99.90;;;;;;4972488;28;20443;-71
2021/12/04 19:01:47;;;;;;;1.37;1.27;;;7.70;99.90;;;;;;4976472;28;20450;-70
2021/12/04 19:04:12;;;;;;;1.10;1.00;;;7.70;99.90;;;;;;4981180;28;20198;-70
2021/12/04 19:06:39;;;;;;;1.70;1.60;;;7.70;99.90;;;;;;4971424;28;20427;-69
2021/12/04 19:09:08;;;;;;;1.63;1.53;;;7.70;99.90;;;;;;4964873;28;20215;-71
2021/12/04 19:11:34;;;;;;;3.47;2.83;;;7.70;99.90;;;;;;4962288;28;20435;-70
2021/12/04 19:13:59;;;;;;;1.50;1.40;;;7.70;99.90;;;;;;4974514;28;20427;-72
2021/12/04 19:16:26;;;;;;;1.97;1.77;;;7.70;99.90;;;;;;4983050;28;20489;-70
2021/12/04 19:18:52;;;;;;;1.83;1.50;;;7.70;99.90;;;;;;4955213;28;20212;-70
2021/12/04 19:21:17;;;;;;;2.23;1.97;;;7.60;99.90;;;;;;4947524;28;20523;-71
2021/12/04 19:23:49;;;;;;;7.13;4.07;;;7.60;99.90;;;;;;4978161;28;20935;-71
2021/12/04 19:26:15;;;;;;;2.20;1.80;;;7.60;99.90;;;;;;4976219;28;20184;-70
2021/12/04 19:28:41;;;;;;;4.67;3.03;;;7.60;99.90;;;;;;4968030;28;20991;-70
2021/12/04 19:31:14;;;;;;;4.50;2.87;;;7.60;99.90;;;;;;4982809;28;20434;-70
2021/12/04 19:53:02;;;;;;;3.17;2.83;;;7.60;99.90;;;;;;4968904;28;20465;-69
2021/12/04 19:55:28;;;;;;;3.77;2.23;;;7.60;99.90;;;;;;4968653;28;20451;-72
2021/12/04 19:57:56;;;;;;;5.53;4.17;;;7.60;99.90;;;;;;4983774;28;20449;-70
2021/12/04 20:00:28;;;;;;;2.20;2.00;;;7.60;99.90;;;;;;4974740;28;20522;-69
2021/12/04 20:03:14;;;;;;;4.13;2.23;;;7.60;99.90;;;;;;4973851;28;20438;-74
2021/12/04 20:13:46;;;;;;;2.90;2.60;;;7.70;99.90;;;;;;4973450;28;20451;-72
2021/12/04 20:16:22;;;;;;;2.33;1.90;;;7.70;99.90;;;;;;4970081;28;20431;-70
2021/12/04 20:18:49;;;;;;;2.10;1.90;;;7.80;99.90;;;;;;4973565;28;20491;-71
2021/12/04 20:21:17;;;;;;;1.70;1.60;;;7.80;99.90;;;;;;4981361;28;20527;-71
2021/12/04 20:23:50;;;;;;;1.47;1.33;;;7.80;99.90;;;;;;4969191;28;20944;-72
2021/12/04 20:26:22;;;;;;;3.57;3.03;;;7.80;99.90;;;;;;4956849;28;20462;-70
2021/12/04 20:29:06;;;;;;;1.60;1.50;;;7.80;99.90;;;;;;4953240;28;20505;-70
2021/12/04 20:31:54;;;;;;;2.40;1.70;;;7.80;99.90;;;;;;4968238;28;20785;-73
2021/12/04 20:35:16;;;;;;;1.67;1.57;;;7.80;99.90;;;;;;4950119;28;20440;-72
2021/12/04 20:40:14;;;;;;;3.10;2.10;;;7.70;99.90;;;;;;4951428;28;20922;-72
2021/12/04 21:07:38;;;;;;;2.57;1.90;;;7.20;99.90;;;;;;4962529;28;20522;-74
2021/12/04 21:10:37;;;;;;;7.40;2.20;;;7.20;99.90;;;;;;4952339;28;20574;-70
2021/12/04 21:51:18;;;;;;;6.90;3.60;;;6.40;99.90;;;;;;4956858;28;20439;-67
2021/12/04 21:53:45;;;;;;;7.17;3.30;;;6.40;99.90;;;;;;4966615;28;20535;-72
2021/12/04 22:10:03;;;;;;;3.17;2.30;;;6.10;99.90;;;;;;4972228;28;20587;-71
2021/12/04 22:15:45;;;;;;;5.73;2.90;;;6.10;99.90;;;;;;4963246;28;20734;-68
2021/12/04 22:18:32;;;;;;;3.90;2.40;;;6.10;99.90;;;;;;4965376;28;20509;-67
2021/12/04 22:21:38;;;;;;;3.70;1.80;;;6.10;99.90;;;;;;4952530;28;20444;-68
2021/12/04 22:59:01;;;;;;;3.80;1.80;;;5.90;99.90;;;;;;4949400;28;20436;-70
2021/12/04 23:01:33;;;;;;;2.30;1.90;;;5.90;99.90;;;;;;4968295;28;20433;-70
2021/12/04 23:04:34;;;;;;;4.83;2.17;;;5.90;99.90;;;;;;4980721;28;20187;-69
2021/12/04 23:15:24;;;;;;;5.80;3.00;;;5.80;99.90;;;;;;4961564;28;20419;-67
2021/12/04 23:34:29;;;;;;;4.50;2.33;;;6.00;99.90;;;;;;4953482;29;20415;-69
2021/12/04 23:37:15;;;;;;;5.90;2.60;;;6.00;99.90;;;;;;4951292;28;20902;-70
2021/12/04 23:42:25;;;;;;;4.80;2.17;;;6.10;99.90;;;;;;4969131;28;20528;-69
2021/12/04 23:47:50;;;;;;;4.83;2.57;;;6.10;99.90;;;;;;4971465;28;20462;-73
